Alta, Wyoming
Current Conditions -  °F | °C
As of 8:31 PM on Friday 19 Dec 2014 (Local Time) from KDIJ Reporting Station
Overcast Overcast  
Wind Chill: -5°   Ceiling: 3100
Heat Index: -1°   Visibility: 9mi
Dew Point: -2°   Wind: 8mph
Humidity: 93%   Direction: 180°S
Pressure: 30.06"   Gusts: NA
Location:  43.77°N, 110.98°W
Report Text: KDIJ 200331Z AUTO 18007KT 9SM FEW004 OVC031 M01/M02 A3006 RMK AO2 UPE23 P0000
Loading
Personal Weather Stations






























Interactive Weather Map New forecast layout! Learn more

10-Day Weather Forecast

Advertisements
Track Severe Weather on mobile